DLH107 EDDM-EDDF
Flight info
| Callsign | DLH107 |
|---|---|
| Flight time | 0h 23m |
| Altitude | 24000 |
| Route | GIVMI6Q GIVMI Y101 ERNAS T161 DEBHI DEBHI1B |
| Aircraft | A359/H-SDE2E3GHIJ3J4J5LM1ORWXY/LB1D1 |
Departure
| Time | 2026-05-04 13:33 |
|---|---|
| Airport | Munich Airport (EDDM) |
Arrival
| Time | 2026-05-04 13:56 |
|---|---|
| Airport | Frankfurt Main Airport (EDDF) |
| Time | Latitude | Longitude | Altitude | Speed | Heading |
|---|---|---|---|---|---|
| 2026-05-04 13:11 | 48.35411 | 11.79319 | 1492 ft | 0 kts | 270° |
| 2026-05-04 13:19 | 48.35411 | 11.79331 | 1492 ft | 4 kts | 270° |
| 2026-05-04 13:20 | 48.35410 | 11.79371 | 1492 ft | 4 kts | 270° |
| 2026-05-04 13:20 | 48.35410 | 11.79404 | 1478 ft | 4 kts | 274° |
| 2026-05-04 13:20 | 48.35403 | 11.79441 | 1492 ft | 4 kts | 307° |
| 2026-05-04 13:20 | 48.35384 | 11.79465 | 1476 ft | 4 kts | 347° |
| 2026-05-04 13:21 | 48.35360 | 11.79470 | 1492 ft | 4 kts | 353° |
| 2026-05-04 13:21 | 48.35345 | 11.79473 | 1492 ft | 0 kts | 353° |
| 2026-05-04 13:26 | 48.35346 | 11.79473 | 1492 ft | 1 kts | 353° |
| 2026-05-04 13:26 | 48.35366 | 11.79469 | 1492 ft | 5 kts | 353° |
| 2026-05-04 13:27 | 48.35420 | 11.79460 | 1492 ft | 10 kts | 353° |
| 2026-05-04 13:27 | 48.35502 | 11.79445 | 1477 ft | 13 kts | 353° |
| 2026-05-04 13:27 | 48.35599 | 11.79428 | 1488 ft | 15 kts | 353° |
| 2026-05-04 13:27 | 48.35710 | 11.79409 | 1484 ft | 17 kts | 353° |
| 2026-05-04 13:28 | 48.35837 | 11.79387 | 1478 ft | 19 kts | 353° |
| 2026-05-04 13:28 | 48.35950 | 11.79341 | 1486 ft | 12 kts | 351° |
| 2026-05-04 13:28 | 48.36038 | 11.79327 | 1478 ft | 14 kts | 353° |
| 2026-05-04 13:28 | 48.36089 | 11.79258 | 1480 ft | 10 kts | 278° |
| 2026-05-04 13:29 | 48.36080 | 11.79148 | 1488 ft | 12 kts | 263° |
| 2026-05-04 13:29 | 48.36068 | 11.78996 | 1480 ft | 17 kts | 263° |
| 2026-05-04 13:29 | 48.36054 | 11.78807 | 1478 ft | 20 kts | 263° |
| 2026-05-04 13:29 | 48.36036 | 11.78581 | 1486 ft | 23 kts | 263° |
| 2026-05-04 13:30 | 48.36017 | 11.78334 | 1491 ft | 25 kts | 263° |
| 2026-05-04 13:30 | 48.35997 | 11.78071 | 1483 ft | 26 kts | 263° |
| 2026-05-04 13:30 | 48.35976 | 11.77798 | 1481 ft | 27 kts | 263° |
| 2026-05-04 13:30 | 48.35955 | 11.77506 | 1484 ft | 28 kts | 264° |
| 2026-05-04 13:31 | 48.35933 | 11.77209 | 1491 ft | 29 kts | 262° |
| 2026-05-04 13:31 | 48.35953 | 11.77019 | 1481 ft | 16 kts | 317° |
| 2026-05-04 13:31 | 48.36063 | 11.76970 | 1487 ft | 17 kts | 353° |
| 2026-05-04 13:31 | 48.36189 | 11.76945 | 1483 ft | 19 kts | 352° |
| 2026-05-04 13:32 | 48.36292 | 11.76978 | 1491 ft | 12 kts | 68° |
| 2026-05-04 13:32 | 48.36305 | 11.77108 | 1491 ft | 20 kts | 83° |
| 2026-05-04 13:32 | 48.36350 | 11.77677 | 1489 ft | 90 kts | 83° |
| 2026-05-04 13:32 | 48.36447 | 11.78939 | 1479 ft | 150 kts | 83° |
| 2026-05-04 13:33 | 48.36579 | 11.80652 | 1923 ft | 168 kts | 83° |
| 2026-05-04 13:33 | 48.36712 | 11.82385 | 2602 ft | 170 kts | 83° |
| 2026-05-04 13:33 | 48.36986 | 11.84227 | 3028 ft | 195 kts | 65° |
| 2026-05-04 13:33 | 48.38009 | 11.85685 | 3304 ft | 221 kts | 22° |
| 2026-05-04 13:34 | 48.39598 | 11.86277 | 3677 ft | 247 kts | 8° |
| 2026-05-04 13:34 | 48.41357 | 11.86159 | 4229 ft | 261 kts | 345° |
| 2026-05-04 13:34 | 48.43348 | 11.84133 | 5246 ft | 269 kts | 312° |
| 2026-05-04 13:34 | 48.48330 | 11.75148 | 8786 ft | 287 kts | 311° |
| 2026-05-04 13:35 | 48.53608 | 11.65810 | 12224 ft | 305 kts | 311° |
| 2026-05-04 13:35 | 48.66151 | 11.43560 | 16855 ft | 394 kts | 310° |
| 2026-05-04 13:35 | 48.74272 | 11.31969 | 19744 ft | 408 kts | 325° |
| 2026-05-04 13:36 | 48.83937 | 11.22313 | 22533 ft | 422 kts | 320° |
| 2026-05-04 13:36 | 48.92787 | 11.10482 | 23989 ft | 416 kts | 316° |
| 2026-05-04 13:36 | 49.01117 | 10.98747 | 23989 ft | 412 kts | 316° |
| 2026-05-04 13:36 | 49.09579 | 10.86831 | 23989 ft | 412 kts | 316° |
| 2026-05-04 13:37 | 49.17986 | 10.74923 | 23999 ft | 412 kts | 315° |
| 2026-05-04 13:37 | 49.26107 | 10.62468 | 24000 ft | 411 kts | 312° |
| 2026-05-04 13:37 | 49.33963 | 10.49993 | 24002 ft | 411 kts | 312° |
| 2026-05-04 13:37 | 49.38202 | 10.42038 | 23999 ft | 409 kts | 303° |
| 2026-05-04 13:38 | 49.40366 | 10.37290 | 23985 ft | 409 kts | 303° |
| 2026-05-04 13:38 | 49.41865 | 10.33993 | 23981 ft | 409 kts | 303° |
| 2026-05-04 13:38 | 49.42829 | 10.31870 | 23979 ft | 409 kts | 303° |
| 2026-05-04 13:38 | 49.44414 | 10.28384 | 23980 ft | 409 kts | 303° |
| 2026-05-04 13:39 | 49.46039 | 10.24809 | 23981 ft | 409 kts | 303° |
| 2026-05-04 13:39 | 49.47673 | 10.21209 | 23981 ft | 409 kts | 303° |
| 2026-05-04 13:39 | 49.49304 | 10.17614 | 23985 ft | 408 kts | 303° |
| 2026-05-04 13:39 | 49.50910 | 10.14069 | 23913 ft | 408 kts | 303° |
| 2026-05-04 13:40 | 49.52552 | 10.10438 | 23372 ft | 416 kts | 303° |
| 2026-05-04 13:40 | 49.54214 | 10.06766 | 22702 ft | 417 kts | 303° |
| 2026-05-04 13:40 | 49.55869 | 10.03100 | 22076 ft | 426 kts | 303° |
| 2026-05-04 13:40 | 49.57571 | 9.99316 | 21428 ft | 429 kts | 303° |
| 2026-05-04 13:41 | 49.59270 | 9.95544 | 20826 ft | 426 kts | 303° |
| 2026-05-04 13:41 | 49.60949 | 9.91809 | 20215 ft | 421 kts | 303° |
| 2026-05-04 13:41 | 49.62608 | 9.88105 | 19615 ft | 416 kts | 303° |
| 2026-05-04 13:42 | 49.64880 | 9.80204 | 18450 ft | 404 kts | 275° |
| 2026-05-04 13:42 | 49.64771 | 9.75915 | 17880 ft | 399 kts | 258° |
| 2026-05-04 13:42 | 49.64227 | 9.71724 | 17271 ft | 396 kts | 261° |
| 2026-05-04 13:42 | 49.64328 | 9.67506 | 16824 ft | 394 kts | 281° |
| 2026-05-04 13:43 | 49.65303 | 9.63616 | 16449 ft | 396 kts | 299° |
| 2026-05-04 13:43 | 49.67068 | 9.60350 | 16073 ft | 398 kts | 317° |
| 2026-05-04 13:43 | 49.69276 | 9.57765 | 15709 ft | 397 kts | 323° |
| 2026-05-04 13:43 | 49.71547 | 9.55315 | 15341 ft | 395 kts | 323° |
| 2026-05-04 13:44 | 49.73771 | 9.52930 | 14960 ft | 393 kts | 323° |
| 2026-05-04 13:44 | 49.76034 | 9.50503 | 14529 ft | 396 kts | 324° |
| 2026-05-04 13:44 | 49.78300 | 9.48069 | 14030 ft | 395 kts | 323° |
| 2026-05-04 13:44 | 49.80563 | 9.45639 | 13532 ft | 393 kts | 323° |
| 2026-05-04 13:45 | 49.82803 | 9.43232 | 13011 ft | 390 kts | 323° |
| 2026-05-04 13:45 | 49.84998 | 9.40869 | 12536 ft | 387 kts | 323° |
| 2026-05-04 13:45 | 49.87207 | 9.38489 | 11962 ft | 384 kts | 323° |
| 2026-05-04 13:45 | 49.89390 | 9.36138 | 11340 ft | 379 kts | 324° |
| 2026-05-04 13:46 | 49.91546 | 9.33802 | 10683 ft | 376 kts | 323° |
| 2026-05-04 13:46 | 49.93677 | 9.31472 | 10022 ft | 372 kts | 324° |
| 2026-05-04 13:46 | 49.95779 | 9.29150 | 9351 ft | 369 kts | 323° |
| 2026-05-04 13:46 | 49.97860 | 9.26827 | 8641 ft | 363 kts | 324° |
| 2026-05-04 13:47 | 49.99829 | 9.24612 | 8016 ft | 343 kts | 323° |
| 2026-05-04 13:47 | 50.01699 | 9.22505 | 7465 ft | 323 kts | 323° |
| 2026-05-04 13:47 | 50.03506 | 9.20480 | 6777 ft | 317 kts | 324° |
| 2026-05-04 13:47 | 50.05286 | 9.18487 | 6326 ft | 312 kts | 323° |
| 2026-05-04 13:48 | 50.07025 | 9.16532 | 5839 ft | 309 kts | 323° |
| 2026-05-04 13:48 | 50.08739 | 9.14609 | 5487 ft | 296 kts | 323° |
| 2026-05-04 13:48 | 50.10354 | 9.12797 | 5210 ft | 275 kts | 323° |
| 2026-05-04 13:48 | 50.11854 | 9.11118 | 4945 ft | 256 kts | 323° |
| 2026-05-04 13:49 | 50.13267 | 9.09533 | 4609 ft | 244 kts | 322° |
| 2026-05-04 13:49 | 50.14317 | 9.07574 | 4166 ft | 238 kts | 291° |
| 2026-05-04 13:49 | 50.14544 | 9.05070 | 4008 ft | 233 kts | 267° |
| 2026-05-04 13:49 | 50.14329 | 9.02568 | 3991 ft | 234 kts | 257° |
| 2026-05-04 13:50 | 50.13876 | 9.00130 | 3981 ft | 233 kts | 250° |
| 2026-05-04 13:50 | 50.13316 | 8.97746 | 3991 ft | 234 kts | 249° |
| 2026-05-04 13:50 | 50.12750 | 8.95398 | 3995 ft | 234 kts | 249° |
| 2026-05-04 13:50 | 50.12180 | 8.93029 | 3985 ft | 233 kts | 249° |
| 2026-05-04 13:51 | 50.11611 | 8.90649 | 3987 ft | 231 kts | 249° |
| 2026-05-04 13:51 | 50.11077 | 8.88395 | 3969 ft | 217 kts | 250° |
| 2026-05-04 13:51 | 50.10575 | 8.86258 | 3992 ft | 204 kts | 250° |
| 2026-05-04 13:51 | 50.10091 | 8.84207 | 3879 ft | 198 kts | 249° |
| 2026-05-04 13:52 | 50.09146 | 8.80239 | 3276 ft | 194 kts | 249° |
| 2026-05-04 13:52 | 50.08682 | 8.78294 | 3002 ft | 193 kts | 249° |
| 2026-05-04 13:52 | 50.08215 | 8.76329 | 2738 ft | 191 kts | 249° |
| 2026-05-04 13:53 | 50.07763 | 8.74423 | 2477 ft | 183 kts | 249° |
| 2026-05-04 13:53 | 50.07331 | 8.72616 | 2244 ft | 175 kts | 249° |
| 2026-05-04 13:53 | 50.06907 | 8.70842 | 2011 ft | 173 kts | 249° |
| 2026-05-04 13:54 | 50.06137 | 8.67596 | 1583 ft | 150 kts | 249° |
| 2026-05-04 13:54 | 50.05786 | 8.66124 | 1385 ft | 140 kts | 249° |
| 2026-05-04 13:54 | 50.05118 | 8.63319 | 1032 ft | 139 kts | 249° |
| 2026-05-04 13:55 | 50.04780 | 8.61897 | 834 ft | 139 kts | 249° |
| 2026-05-04 13:55 | 50.04125 | 8.59130 | 476 ft | 136 kts | 249° |
| 2026-05-04 13:55 | 50.03793 | 8.57765 | 374 ft | 129 kts | 249° |
| 2026-05-04 13:56 | 50.03534 | 8.56682 | 364 ft | 84 kts | 249° |
| 2026-05-04 13:56 | 50.03379 | 8.56035 | 359 ft | 52 kts | 249° |
| 2026-05-04 13:56 | 50.03333 | 8.55305 | 358 ft | 22 kts | 281° |
| 2026-05-04 13:57 | 50.03401 | 8.55179 | 351 ft | 14 kts | 3° |
| 2026-05-04 13:57 | 50.03449 | 8.55283 | 359 ft | 12 kts | 71° |
| 2026-05-04 13:58 | 50.03558 | 8.55752 | 356 ft | 18 kts | 69° |
| 2026-05-04 13:58 | 50.03648 | 8.56131 | 367 ft | 20 kts | 70° |
| 2026-05-04 13:58 | 50.03699 | 8.56339 | 359 ft | 22 kts | 69° |
| 2026-05-04 13:59 | 50.03754 | 8.56569 | 364 ft | 24 kts | 69° |
| 2026-05-04 13:59 | 50.03814 | 8.56818 | 368 ft | 25 kts | 69° |
| 2026-05-04 13:59 | 50.03936 | 8.57332 | 374 ft | 25 kts | 69° |
| 2026-05-04 14:00 | 50.03997 | 8.57584 | 372 ft | 25 kts | 69° |
| 2026-05-04 14:00 | 50.04123 | 8.58094 | 377 ft | 22 kts | 57° |
| 2026-05-04 14:00 | 50.04213 | 8.58192 | 376 ft | 15 kts | 26° |
| 2026-05-04 14:01 | 50.04280 | 8.58208 | 375 ft | 0 kts | 339° |
| 2026-05-04 14:02 | 50.04286 | 8.58204 | 375 ft | 4 kts | 339° |
| 2026-05-04 14:02 | 50.04328 | 8.58179 | 378 ft | 9 kts | 339° |
| 2026-05-04 14:02 | 50.04393 | 8.58141 | 376 ft | 12 kts | 339° |
| 2026-05-04 14:03 | 50.04461 | 8.58101 | 374 ft | 10 kts | 339° |
| 2026-05-04 14:03 | 50.04511 | 8.58072 | 376 ft | 9 kts | 339° |
| 2026-05-04 14:03 | 50.04590 | 8.58027 | 373 ft | 16 kts | 340° |
| 2026-05-04 14:03 | 50.04708 | 8.57960 | 370 ft | 17 kts | 340° |